Time;durP1;ratioP1;P1;durP2;ratioP2;P2;SDS_P1;SDS_P2;PMS_P1;PMS_P2;Temp;Humidity;BMP_temperature;BMP_pressure;BME280_temperature;BME280_humidity;BME280_pressure;Samples;Min_cycle;Max_cycle;Signal;HPM_P1;HPM_P2
2023/07/29 00:01:10;;;;;;;;;4.00;4.00;;;;;;;;2;261083173;261083173;-69
2023/07/29 00:09:53;;;;;;;;;5.00;5.00;;;;;;;;2;243077178;243077178;-69
2023/07/29 00:18:08;;;;;;;;;3.50;3.50;;;;;;;;2;261083982;261083982;-70
2023/07/29 00:26:50;;;;;;;;;5.00;5.00;;;;;;;;2;243077339;243077339;-68
2023/07/29 00:35:06;;;;;;;;;3.50;3.50;;;;;;;;2;261082013;261082013;-68
2023/07/29 00:43:49;;;;;;;;;1.50;1.50;;;;;;;;2;243077799;243077799;-70
2023/07/29 00:52:04;;;;;;;;;2.00;2.00;;;;;;;;2;261082073;261082073;-71
2023/07/29 01:00:47;;;;;;;;;2.50;2.50;;;;;;;;2;243075835;243075835;-69
2023/07/29 01:09:04;;;;;;;;;0.50;0.50;;;;;;;;2;261080570;261080570;-71
2023/07/29 01:17:48;;;;;;;;;3.50;3.50;;;;;;;;2;243073620;243073620;-70
2023/07/29 01:26:03;;;;;;;;;0.00;0.00;;;;;;;;2;261080625;261080625;-71
2023/07/29 01:34:48;;;;;;;;;0.00;0.00;;;;;;;;2;243076764;243076764;-70
2023/07/29 01:43:04;;;;;;;;;0.00;0.00;;;;;;;;2;261080300;261080300;-71
2023/07/29 01:51:46;;;;;;;;;0.00;0.00;;;;;;;;2;243073618;243073618;-71
2023/07/29 02:00:03;;;;;;;;;0.00;0.00;;;;;;;;2;261079493;261079493;-70
2023/07/29 02:08:46;;;;;;;;;0.00;0.00;;;;;;;;2;243072116;243072116;-70
2023/07/29 02:17:01;;;;;;;;;0.00;0.00;;;;;;;;2;261077560;261077560;-70
2023/07/29 02:25:43;;;;;;;;;0.00;0.00;;;;;;;;2;243073773;243073773;-70
2023/07/29 02:33:59;;;;;;;;;2.50;0.00;;;;;;;;2;261078421;261078421;-70
2023/07/29 02:42:41;;;;;;;;;0.00;0.00;;;;;;;;2;243074373;243074373;-70
2023/07/29 02:50:56;;;;;;;;;0.50;0.50;;;;;;;;2;261078771;261078771;-70
2023/07/29 02:59:39;;;;;;;;;0.00;0.00;;;;;;;;2;243074791;243074791;-69
2023/07/29 03:07:54;;;;;;;;;0.00;0.00;;;;;;;;2;261081125;261081125;-70
2023/07/29 03:16:37;;;;;;;;;0.00;0.00;;;;;;;;2;243073109;243073109;-70
2023/07/29 03:24:52;;;;;;;;;0.00;0.00;;;;;;;;2;261080316;261080316;-70
2023/07/29 03:33:34;;;;;;;;;0.00;0.00;;;;;;;;2;243076637;243076637;-69
2023/07/29 03:41:50;;;;;;;;;0.00;0.00;;;;;;;;2;261077988;261077988;-70
2023/07/29 03:50:35;;;;;;;;;0.00;0.00;;;;;;;;2;243073070;243073070;-70
2023/07/29 03:58:52;;;;;;;;;0.00;0.00;;;;;;;;2;261079042;261079042;-70
2023/07/29 04:07:35;;;;;;;;;1.00;1.00;;;;;;;;2;243075220;243075220;-70
2023/07/29 04:15:50;;;;;;;;;0.50;0.50;;;;;;;;2;261079377;261079377;-70
2023/07/29 04:24:32;;;;;;;;;0.50;0.50;;;;;;;;2;243076353;243076353;-70
2023/07/29 04:32:48;;;;;;;;;0.00;0.00;;;;;;;;2;261079931;261079931;-69
2023/07/29 04:41:30;;;;;;;;;0.00;0.00;;;;;;;;2;243074444;243074444;-69
2023/07/29 04:49:46;;;;;;;;;0.50;0.50;;;;;;;;2;261077647;261077647;-68
2023/07/29 04:58:29;;;;;;;;;0.00;0.00;;;;;;;;2;243075130;243075130;-69
2023/07/29 05:06:45;;;;;;;;;1.00;1.00;;;;;;;;2;261078583;261078583;-69
2023/07/29 05:15:27;;;;;;;;;0.50;0.50;;;;;;;;2;243072919;243072919;-69
2023/07/29 05:23:42;;;;;;;;;0.50;0.50;;;;;;;;2;261078767;261078767;-70
2023/07/29 05:32:25;;;;;;;;;0.00;0.00;;;;;;;;2;243074038;243074038;-69
2023/07/29 05:40:41;;;;;;;;;1.00;1.00;;;;;;;;2;261077182;261077182;-69
2023/07/29 05:49:23;;;;;;;;;2.00;2.00;;;;;;;;2;243075157;243075157;-69
2023/07/29 05:57:39;;;;;;;;;0.00;0.00;;;;;;;;2;261079437;261079437;-68
2023/07/29 06:06:23;;;;;;;;;0.50;0.50;;;;;;;;2;243071088;243071088;-69
2023/07/29 06:14:38;;;;;;;;;0.00;0.00;;;;;;;;2;261081983;261081983;-68
2023/07/29 06:23:21;;;;;;;;;0.50;0.50;;;;;;;;2;243072759;243072759;-69
2023/07/29 06:31:36;;;;;;;;;0.00;0.00;;;;;;;;2;261077896;261077896;-70
2023/07/29 06:40:18;;;;;;;;;0.00;0.00;;;;;;;;2;243075241;243075241;-69
2023/07/29 06:48:34;;;;;;;;;0.00;0.00;;;;;;;;2;261081106;261081106;-70
2023/07/29 06:57:16;;;;;;;;;0.00;0.00;;;;;;;;2;243074679;243074679;-71
2023/07/29 07:05:31;;;;;;;;;0.00;0.00;;;;;;;;2;261078962;261078962;-69
2023/07/29 07:14:14;;;;;;;;;0.00;0.00;;;;;;;;2;243073144;243073144;-67
2023/07/29 07:22:29;;;;;;;;;0.00;0.00;;;;;;;;2;261077372;261077372;-70
2023/07/29 07:31:12;;;;;;;;;0.00;0.00;;;;;;;;2;243075643;243075643;-68
2023/07/29 07:39:27;;;;;;;;;0.00;0.00;;;;;;;;2;261079617;261079617;-67
2023/07/29 07:48:11;;;;;;;;;0.00;0.00;;;;;;;;2;243072379;243072379;-68
2023/07/29 07:56:27;;;;;;;;;0.50;0.50;;;;;;;;2;261080956;261080956;-68
2023/07/29 08:05:09;;;;;;;;;0.50;0.50;;;;;;;;2;243075369;243075369;-68
2023/07/29 08:13:25;;;;;;;;;0.00;0.00;;;;;;;;2;261078319;261078319;-68
2023/07/29 08:22:07;;;;;;;;;0.50;0.50;;;;;;;;2;243076066;243076066;-68
2023/07/29 08:30:22;;;;;;;;;0.00;0.00;;;;;;;;2;261079243;261079243;-80
2023/07/29 08:39:05;;;;;;;;;0.50;0.50;;;;;;;;2;243066262;243066262;-84
2023/07/29 08:47:20;;;;;;;;;11.00;0.00;;;;;;;;2;261073916;261073916;-85
2023/07/29 08:56:03;;;;;;;;;0.00;0.00;;;;;;;;2;243069099;243069099;-85
2023/07/29 09:04:19;;;;;;;;;1.50;1.50;;;;;;;;2;261073306;261073306;-73
2023/07/29 09:13:03;;;;;;;;;0.00;0.00;;;;;;;;2;243071255;243071255;-76
2023/07/29 09:21:23;;;;;;;;;1.00;1.00;;;;;;;;2;261074799;261074799;-77
2023/07/29 09:29:57;;;;;;;;;0.00;0.00;;;;;;;;2;242090339;242090339;-78
2023/07/29 09:37:43;;;;;;;;;0.00;0.00;;;;;;;;2;246549014;246549014;-79
2023/07/29 09:45:54;;;;;;;;;1.50;1.50;;;;;;;;2;228589784;228589784;-79
2023/07/29 09:53:39;;;;;;;;;0.00;0.00;;;;;;;;2;244590742;244590742;-79
2023/07/29 10:01:53;;;;;;;;;3.00;3.00;;;;;;;;2;229285642;229285642;-79
2023/07/29 10:09:44;;;;;;;;;1.00;1.00;;;;;;;;2;245705100;245705100;-79
2023/07/29 10:17:59;;;;;;;;;0.50;0.50;;;;;;;;2;231187581;231187581;-79
2023/07/29 10:25:45;;;;;;;;;0.00;0.00;;;;;;;;2;242035877;242035877;-79
2023/07/29 10:33:56;;;;;;;;;0.50;0.50;;;;;;;;2;227332212;227332212;-79
2023/07/29 10:42:00;;;;;;;;;1.00;1.00;;;;;;;;2;247952364;247952364;-79
2023/07/29 10:50:21;;;;;;;;;0.00;0.00;;;;;;;;2;231601598;231601598;-79
2023/07/29 10:58:13;;;;;;;;;2.00;2.00;;;;;;;;2;248614893;248614893;-79
2023/07/29 11:06:29;;;;;;;;;1.00;1.00;;;;;;;;2;231461555;231461555;-78
2023/07/29 11:14:19;;;;;;;;;1.00;1.00;;;;;;;;2;246249847;246249847;-79
2023/07/29 11:22:30;;;;;;;;;0.00;0.00;;;;;;;;2;228939932;228939932;-78
2023/07/29 11:30:14;;;;;;;;;0.50;0.50;;;;;;;;2;243953838;243953838;-79
2023/07/29 11:38:20;;;;;;;;;8.50;0.50;;;;;;;;2;228168171;228168171;-78
2023/07/29 11:48:14;;;;;;;;;0.50;0.50;;;;;;;;473275;28;208838927;-78
2023/07/29 11:56:00;;;;;;;;;1.00;1.00;;;;;;;;2;246086330;246086330;-78
2023/07/29 12:04:13;;;;;;;;;0.00;0.00;;;;;;;;2;230141498;230141498;-79
2023/07/29 12:12:03;;;;;;;;;1.00;1.00;;;;;;;;2;249268180;249268180;-81
2023/07/29 12:20:10;;;;;;;;;0.00;0.00;;;;;;;;2;229130248;229130248;-80
2023/07/29 12:28:04;;;;;;;;;0.00;0.00;;;;;;;;2;249040424;249040424;-80
2023/07/29 12:35:56;;;;;;;;;0.00;0.00;;;;;;;;334192;28;223111521;-80
2023/07/29 12:44:33;;;;;;;;;1.50;1.50;;;;;;;;2;264810519;264810519;-80
2023/07/29 12:52:05;;;;;;;;;2.00;2.00;;;;;;;;2;222701270;222701270;-81
2023/07/29 13:00:10;;;;;;;;;0.50;0.50;;;;;;;;2;263743233;263743233;-81
2023/07/29 13:05:56;;;;;;;;;0.00;0.00;;;;;;;;2;205173162;205173162;-80
2023/07/29 13:14:20;;;;;;;;;0.00;0.00;;;;;;;;2;261828456;261828456;-80
2023/07/29 13:17:51;;;;;;;;;0.50;0.50;;;;;;;;2;205025769;205025769;-80
2023/07/29 13:27:06;;;;;;;;;1.00;1.00;;;;;;;;3;94217299;237525682;-80
2023/07/29 13:35:19;;;;;;;;;0.00;0.00;;;;;;;;2;229035739;229035739;-81
2023/07/29 13:43:09;;;;;;;;;0.00;0.00;;;;;;;;2;248127381;248127381;-79
2023/07/29 13:51:18;;;;;;;;;0.00;0.00;;;;;;;;2;227477864;227477864;-80
2023/07/29 13:59:27;;;;;;;;;0.00;0.00;;;;;;;;2;257460333;257460333;-82
2023/07/29 14:07:41;;;;;;;;;0.00;0.00;;;;;;;;2;231588605;231588605;-80
2023/07/29 14:15:24;;;;;;;;;0.00;0.00;;;;;;;;2;244364912;244364912;-79
2023/07/29 14:23:30;;;;;;;;;0.00;0.00;;;;;;;;2;223082665;223082665;-76
2023/07/29 14:30:55;;;;;;;;;0.00;0.00;;;;;;;;2;240943991;240943991;-78
2023/07/29 14:38:34;;;;;;;;;1.00;1.00;;;;;;;;2;215176681;215176681;-77
2023/07/29 14:45:30;;;;;;;;;0.50;0.50;;;;;;;;2;222546631;222546631;-76
2023/07/29 14:50:01;;;;;;;;;0.00;0.00;;;;;;;;2;188222063;188222063;-78
2023/07/29 14:57:50;;;;;;;;;0.00;0.00;;;;;;;;2;245939721;245939721;-78
2023/07/29 15:06:07;;;;;;;;;1.00;1.00;;;;;;;;2;232148265;232148265;-77
2023/07/29 15:13:58;;;;;;;;;0.00;0.00;;;;;;;;2;248702529;248702529;-77
2023/07/29 15:22:09;;;;;;;;;0.00;0.00;;;;;;;;2;229485723;229485723;-78
2023/07/29 15:29:56;;;;;;;;;0.00;0.00;;;;;;;;2;245923247;245923247;-77
2023/07/29 15:37:50;;;;;;;;;0.00;0.00;;;;;;;;2;226971387;226971387;-78
2023/07/29 15:40:16;;;;;;;;;1.00;0.50;;;;;;;;1151781;28;74362183;-78
2023/07/29 15:47:32;;;;;;;;;;;;;;;;;;99887;28;229285950;-76
2023/07/29 15:55:50;;;;;;;;;0.50;0.50;;;;;;;;2;184667929;184667929;-76
2023/07/29 16:02:24;;;;;;;;;0.00;0.00;;;;;;;;2;180874004;180874004;-78
2023/07/29 16:08:33;;;;;;;;;0.00;0.00;;;;;;;;2;193541290;193541290;-77
2023/07/29 16:15:05;;;;;;;;;0.00;0.00;;;;;;;;2;184246483;184246483;-76
2023/07/29 16:21:16;;;;;;;;;1.00;1.00;;;;;;;;2;191447255;191447255;-76
2023/07/29 16:28:05;;;;;;;;;0.00;0.00;;;;;;;;2;186077508;186077508;-77
2023/07/29 16:34:55;;;;;;;;;0.00;0.00;;;;;;;;2;215826416;215826416;-76
2023/07/29 16:41:31;;;;;;;;;1.00;1.00;;;;;;;;2;200642249;200642249;-76
2023/07/29 16:50:02;;;;;;;;;0.00;0.00;;;;;;;;1178744;27;224053853;-76
2023/07/29 16:58:47;;;;;;;;;0.50;0.50;;;;;;;;2;269860938;269860938;-76
2023/07/29 17:06:35;;;;;;;;;3.00;3.00;;;;;;;;2;229462192;229462192;-75
2023/07/29 17:15:22;;;;;;;;;0.00;0.00;;;;;;;;2;271997743;271997743;-75
2023/07/29 17:23:07;;;;;;;;;0.00;0.00;;;;;;;;2;227589344;227589344;-76
2023/07/29 17:31:53;;;;;;;;;2.00;2.00;;;;;;;;2;272413327;272413327;-76
2023/07/29 17:39:35;;;;;;;;;0.00;0.00;;;;;;;;2;226442227;226442227;-75
2023/07/29 17:48:18;;;;;;;;;0.50;0.50;;;;;;;;2;268480025;268480025;-75
2023/07/29 17:55:59;;;;;;;;;1.00;1.00;;;;;;;;2;226889935;226889935;-77
2023/07/29 18:04:39;;;;;;;;;3.00;3.00;;;;;;;;2;267707258;267707258;-74
2023/07/29 18:12:21;;;;;;;;;0.00;0.00;;;;;;;;2;225861375;225861375;-74
2023/07/29 18:20:59;;;;;;;;;0.50;0.50;;;;;;;;2;268719157;268719157;-75
2023/07/29 18:28:36;;;;;;;;;0.50;0.50;;;;;;;;2;223281662;223281662;-74
2023/07/29 18:37:10;;;;;;;;;0.50;0.50;;;;;;;;2;266428262;266428262;-75
2023/07/29 18:44:44;;;;;;;;;2.00;2.00;;;;;;;;2;221646227;221646227;-75
2023/07/29 18:53:14;;;;;;;;;1.50;1.50;;;;;;;;2;262975845;262975845;-75
2023/07/29 19:00:48;;;;;;;;;24.50;24.50;;;;;;;;2;221831537;221831537;-76
2023/07/29 19:09:25;;;;;;;;;2.50;2.50;;;;;;;;2;265891556;265891556;-74
2023/07/29 19:17:02;;;;;;;;;4.50;4.50;;;;;;;;2;223680737;223680737;-76
2023/07/29 19:25:47;;;;;;;;;1.00;1.00;;;;;;;;2;267793803;267793803;-75
2023/07/29 19:33:24;;;;;;;;;1.00;1.00;;;;;;;;2;223456501;223456501;-74
2023/07/29 19:42:02;;;;;;;;;0.50;0.50;;;;;;;;2;267727927;267727927;-75
2023/07/29 19:49:37;;;;;;;;;4.50;2.00;;;;;;;;2;222436795;222436795;-76
2023/07/29 19:58:12;;;;;;;;;5.00;2.00;;;;;;;;2;266784910;266784910;-76
2023/07/29 20:05:47;;;;;;;;;5.50;5.50;;;;;;;;2;224213969;224213969;-77
2023/07/29 20:14:24;;;;;;;;;2.00;2.00;;;;;;;;2;266310085;266310085;-75
2023/07/29 20:22:02;;;;;;;;;6.00;6.00;;;;;;;;2;225043802;225043802;-76
2023/07/29 20:30:36;;;;;;;;;1.50;1.50;;;;;;;;2;265931629;265931629;-75
2023/07/29 20:38:06;;;;;;;;;13.50;13.50;;;;;;;;2;221772379;221772379;-75
2023/07/29 20:46:38;;;;;;;;;17.50;17.50;;;;;;;;2;263738585;263738585;-74
2023/07/29 20:54:04;;;;;;;;;29.50;28.00;;;;;;;;2;219155392;219155392;-75
2023/07/29 21:02:37;;;;;;;;;33.50;30.00;;;;;;;;2;263732766;263732766;-76
2023/07/29 21:10:11;;;;;;;;;16.00;16.00;;;;;;;;2;222685218;222685218;-76
2023/07/29 21:18:47;;;;;;;;;8.50;8.50;;;;;;;;2;266071543;266071543;-76
2023/07/29 21:26:22;;;;;;;;;2.50;2.50;;;;;;;;2;223142497;223142497;-76
2023/07/29 21:34:58;;;;;;;;;5.50;5.50;;;;;;;;2;266662913;266662913;-75
2023/07/29 21:42:34;;;;;;;;;4.50;1.50;;;;;;;;2;223857354;223857354;-74
2023/07/29 21:51:09;;;;;;;;;3.00;3.00;;;;;;;;2;267327911;267327911;-76
2023/07/29 21:58:44;;;;;;;;;3.00;3.00;;;;;;;;2;221491367;221491367;-76
2023/07/29 22:07:22;;;;;;;;;0.50;0.50;;;;;;;;2;267559198;267559198;-79
2023/07/29 22:14:54;;;;;;;;;0.00;0.00;;;;;;;;2;222599513;222599513;-81
2023/07/29 22:23:23;;;;;;;;;0.50;0.50;;;;;;;;2;261349984;261349984;-80
2023/07/29 22:30:52;;;;;;;;;1.50;1.50;;;;;;;;2;218797521;218797521;-80
2023/07/29 22:39:20;;;;;;;;;4.50;0.50;;;;;;;;2;262261075;262261075;-78
2023/07/29 22:46:49;;;;;;;;;1.00;1.00;;;;;;;;2;222299938;222299938;-79
2023/07/29 22:55:19;;;;;;;;;3.00;3.00;;;;;;;;2;264757203;264757203;-79
2023/07/29 23:02:52;;;;;;;;;0.50;0.50;;;;;;;;2;221226604;221226604;-79
2023/07/29 23:11:25;;;;;;;;;0.00;0.00;;;;;;;;2;267661214;267661214;-75
2023/07/29 23:18:56;;;;;;;;;1.00;1.00;;;;;;;;2;221676626;221676626;-80
2023/07/29 23:27:29;;;;;;;;;0.50;0.50;;;;;;;;2;264497364;264497364;-81
2023/07/29 23:34:59;;;;;;;;;0.00;0.00;;;;;;;;2;222046868;222046868;-76
2023/07/29 23:43:34;;;;;;;;;0.00;0.00;;;;;;;;2;266983422;266983422;-78
2023/07/29 23:51:04;;;;;;;;;0.00;0.00;;;;;;;;2;217757651;217757651;-81
2023/07/29 23:59:36;;;;;;;;;1.00;1.00;;;;;;;;2;265054925;265054925;-80
